createdAt,value
2019-04-16T00:01:55.503Z,18.27
2019-04-16T00:04:44.503Z,20.52
2019-04-16T00:07:21.373Z,19.92
2019-04-16T00:09:55.133Z,19.55
2019-04-16T00:12:25.898Z,20.43
2019-04-16T00:15:07.127Z,23.02
2019-04-16T00:17:37.158Z,20.92
2019-04-16T00:20:06.973Z,17.90
2019-04-16T00:22:39.589Z,19.35
2019-04-16T00:25:08.695Z,20.20
2019-04-16T00:27:38.479Z,20.60
2019-04-16T00:30:07.651Z,20.20
2019-04-16T00:32:38.006Z,17.55
2019-04-16T00:35:07.582Z,17.90
2019-04-16T00:37:37.029Z,21.80
2019-04-16T00:40:08.698Z,20.23
2019-04-16T00:42:37.811Z,22.55
2019-04-16T00:45:07.179Z,19.52
2019-04-16T00:47:36.299Z,19.20
2019-04-16T00:50:06.580Z,21.33
2019-04-16T00:52:37.708Z,21.80
2019-04-16T00:55:08.487Z,20.17
2019-04-16T00:57:39.057Z,20.65
2019-04-16T01:00:09.094Z,22.42
2019-04-16T01:02:40.916Z,18.50
2019-04-16T01:05:12.463Z,21.85
2019-04-16T01:07:41.562Z,21.33
2019-04-16T01:10:10.677Z,22.35
2019-04-16T01:12:39.789Z,20.60
2019-04-16T01:15:09.153Z,21.10
2019-04-16T01:17:39.437Z,20.50
2019-04-16T01:20:11.576Z,20.25
2019-04-16T01:22:39.924Z,21.60
2019-04-16T01:25:09.031Z,19.62
2019-04-16T01:27:39.786Z,21.77
2019-04-16T01:30:11.980Z,20.62
2019-04-16T01:32:48.687Z,22.13
2019-04-16T01:35:37.345Z,23.87
2019-04-16T01:38:18.811Z,23.07
2019-04-16T01:40:52.487Z,20.23
2019-04-16T01:43:25.557Z,23.77
2019-04-16T01:45:54.562Z,27.42
2019-04-16T01:48:23.666Z,24.12
2019-04-16T01:50:53.026Z,25.65
2019-04-16T01:53:22.811Z,20.40
2019-04-16T01:55:56.759Z,23.22
2019-04-16T01:58:22.727Z,24.37
2019-04-16T02:00:51.875Z,25.40
2019-04-16T02:03:20.986Z,23.47
2019-04-16T02:05:54.606Z,22.15
2019-04-16T02:08:20.897Z,22.70
2019-04-16T02:10:49.997Z,21.60
2019-04-16T02:13:19.118Z,23.80
2019-04-16T02:15:53.339Z,23.80
2019-04-16T02:18:21.641Z,22.55
2019-04-16T02:20:50.734Z,24.32
2019-04-16T02:23:19.845Z,20.92
2019-04-16T02:25:51.371Z,20.48
2019-04-16T02:28:21.840Z,22.87
2019-04-16T02:30:52.734Z,20.20
2019-04-16T02:33:21.858Z,23.60
2019-04-16T02:35:52.583Z,20.12
2019-04-16T02:38:22.533Z,22.52
2019-04-16T02:40:53.363Z,22.75
2019-04-16T02:43:22.589Z,24.52
2019-04-16T02:45:56.463Z,22.55
2019-04-16T02:48:24.219Z,22.00
2019-04-16T02:50:54.982Z,20.20
2019-04-16T02:53:37.658Z,19.27
2019-04-16T02:56:24.370Z,20.30
2019-04-16T02:58:57.802Z,17.92
2019-04-16T03:01:45.518Z,20.52
2019-04-16T03:04:38.016Z,19.77
2019-04-16T03:07:08.482Z,19.17
2019-04-16T03:09:40.210Z,20.52
2019-04-16T03:12:08.411Z,20.20
2019-04-16T03:14:39.152Z,20.17
2019-04-16T03:17:26.247Z,19.65
2019-04-16T03:20:00.301Z,18.67
2019-04-16T03:24:59.547Z,18.25
2019-04-16T03:27:31.890Z,17.20
2019-04-16T03:30:03.442Z,19.57
2019-04-16T03:32:35.491Z,18.75
2019-04-16T03:35:05.756Z,17.90
2019-04-16T03:37:36.511Z,19.77
2019-04-16T03:40:16.469Z,19.87
2019-04-16T03:42:41.339Z,22.87
2019-04-16T03:45:12.094Z,19.25
2019-04-16T03:47:42.829Z,18.57
2019-04-16T03:50:11.985Z,19.12
2019-04-16T03:52:45.811Z,22.32
2019-04-16T03:55:18.459Z,21.20
2019-04-16T03:57:47.566Z,19.60
2019-04-16T04:00:16.686Z,19.75
2019-04-16T04:02:47.429Z,23.25
2019-04-16T04:05:18.118Z,22.65
2019-04-16T04:07:47.272Z,20.45
2019-04-16T04:10:30.301Z,19.98
2019-04-16T04:15:19.286Z,22.52
2019-04-16T04:17:51.136Z,25.30
2019-04-16T04:20:20.246Z,24.07
2019-04-16T04:22:49.382Z,22.17
2019-04-16T04:25:18.494Z,23.45
2019-04-16T04:27:47.808Z,20.45
2019-04-16T04:30:20.359Z,22.85
2019-04-16T04:32:49.460Z,24.07
2019-04-16T04:35:21.844Z,24.05
2019-04-16T04:37:51.989Z,22.70
2019-04-16T04:40:21.266Z,24.40
2019-04-16T04:42:50.389Z,25.23
2019-04-16T04:45:21.570Z,27.17
2019-04-16T04:47:51.604Z,22.10
2019-04-16T04:50:23.090Z,20.57
2019-04-16T04:52:52.214Z,23.65
2019-04-16T04:55:23.422Z,22.73
2019-04-16T04:57:54.778Z,26.82
2019-04-16T05:00:25.509Z,25.97
2019-04-16T05:02:54.630Z,23.40
2019-04-16T05:05:31.838Z,22.65
2019-04-16T05:08:02.042Z,21.20
2019-04-16T05:10:32.474Z,23.60
2019-04-16T05:13:01.615Z,21.00
2019-04-16T05:15:30.724Z,28.42
2019-04-16T05:18:00.585Z,26.10
2019-04-16T05:20:30.667Z,20.37
2019-04-16T05:23:01.438Z,19.80
2019-04-16T05:25:34.189Z,20.23
2019-04-16T05:30:52.566Z,19.05
2019-04-16T05:33:23.952Z,20.55
2019-04-16T05:35:53.057Z,21.00
2019-04-16T05:38:26.487Z,18.70
2019-04-16T05:41:12.184Z,17.73
2019-04-16T05:43:31.160Z,19.87
2019-04-16T05:46:01.853Z,20.75
2019-04-16T05:48:32.592Z,18.17
2019-04-16T05:51:08.848Z,19.82
2019-04-16T05:53:40.180Z,19.42
2019-04-16T05:56:28.304Z,19.17
2019-04-16T05:58:59.611Z,19.45
2019-04-16T06:01:34.650Z,17.40
2019-04-16T06:04:07.418Z,21.07
2019-04-16T06:06:38.707Z,18.25
2019-04-16T06:09:11.939Z,20.50
2019-04-16T06:11:42.589Z,19.00
2019-04-16T06:14:29.368Z,20.08
2019-04-16T06:17:11.089Z,18.73
2019-04-16T06:19:46.811Z,20.57
2019-04-16T06:22:28.335Z,20.65
2019-04-16T06:25:16.315Z,22.05
2019-04-16T06:27:47.848Z,20.43
2019-04-16T06:30:32.950Z,20.62
2019-04-16T06:33:05.541Z,25.97
2019-04-16T06:38:28.495Z,15.65
2019-04-16T06:41:22.141Z,21.52
2019-04-16T06:43:59.541Z,15.93
2019-04-16T06:46:42.881Z,17.50
2019-04-16T06:49:17.698Z,18.82
2019-04-16T06:51:52.301Z,16.65
2019-04-16T06:54:40.257Z,19.45
2019-04-16T06:57:28.711Z,17.45
2019-04-16T07:00:15.986Z,15.83
2019-04-16T07:03:01.703Z,15.32
2019-04-16T07:05:32.175Z,16.70
2019-04-16T07:08:00.982Z,15.55
2019-04-16T07:10:44.110Z,25.35
2019-04-16T07:13:03.192Z,13.70
2019-04-16T07:15:34.155Z,18.62
2019-04-16T07:18:05.354Z,16.90
2019-04-16T07:20:37.099Z,15.70
2019-04-16T07:23:06.288Z,15.20
2019-04-16T07:25:41.450Z,14.15
2019-04-16T07:28:25.559Z,13.48
2019-04-16T07:30:59.406Z,18.60
2019-04-16T07:33:46.583Z,15.25
2019-04-16T07:36:17.334Z,17.25
2019-04-16T07:39:06.198Z,15.53
2019-04-16T07:42:08.536Z,15.05
2019-04-16T07:44:45.939Z,15.90
2019-04-16T07:47:33.151Z,14.43
2019-04-16T07:50:06.719Z,17.35
2019-04-16T07:52:55.939Z,15.60
2019-04-16T07:55:32.792Z,15.88
2019-04-16T07:58:03.277Z,14.15
2019-04-16T08:00:40.555Z,15.10
2019-04-16T08:03:04.226Z,15.00
2019-04-16T08:05:33.840Z,14.00
2019-04-16T08:08:05.421Z,15.35
2019-04-16T08:10:40.299Z,15.57
2019-04-16T08:13:15.260Z,15.63
2019-04-16T08:15:48.636Z,18.45
2019-04-16T08:18:23.242Z,15.15
2019-04-16T08:23:26.435Z,14.65
2019-04-16T08:26:03.218Z,14.33
2019-04-16T08:28:30.313Z,17.57
2019-04-16T08:30:59.447Z,17.30
2019-04-16T08:33:33.927Z,15.13
2019-04-16T08:36:03.468Z,16.85
2019-04-16T08:38:36.114Z,15.05
2019-04-16T08:41:06.515Z,17.05
2019-04-16T08:43:36.743Z,15.23
2019-04-16T08:46:10.045Z,17.35
2019-04-16T08:48:39.114Z,14.20
2019-04-16T08:51:10.211Z,21.37
2019-04-16T08:53:43.756Z,15.15
2019-04-16T08:56:17.198Z,17.35
2019-04-16T08:58:46.390Z,17.12
2019-04-16T09:01:23.354Z,15.55
2019-04-16T09:03:52.167Z,14.00
2019-04-16T09:06:21.903Z,15.72
2019-04-16T09:09:12.432Z,16.60
2019-04-16T09:11:37.218Z,14.73
2019-04-16T09:14:07.887Z,18.70
2019-04-16T09:16:45.778Z,14.75
2019-04-16T09:19:22.340Z,16.67
2019-04-16T09:21:51.476Z,15.72
2019-04-16T09:24:22.240Z,14.83
2019-04-16T09:27:13.605Z,17.15
2019-04-16T09:30:02.574Z,17.48
2019-04-16T09:32:45.563Z,21.80
2019-04-16T09:35:19.682Z,14.95
2019-04-16T09:38:09.342Z,17.48
2019-04-16T09:40:56.127Z,17.02
2019-04-16T09:43:43.885Z,16.40
2019-04-16T09:46:21.065Z,18.73
2019-04-16T09:48:44.909Z,16.93
2019-04-16T09:51:18.868Z,18.02
2019-04-16T09:53:47.799Z,16.65
2019-04-16T09:56:29.351Z,15.85
2019-04-16T09:59:00.746Z,17.67
2019-04-16T10:01:33.028Z,18.30
2019-04-16T10:04:02.511Z,14.23
2019-04-16T10:06:31.651Z,17.00
2019-04-16T10:09:00.794Z,16.85
2019-04-16T10:11:32.656Z,17.27
2019-04-16T10:14:02.439Z,17.98
2019-04-16T10:16:34.512Z,16.17
2019-04-16T10:19:08.529Z,16.12
2019-04-16T10:21:36.075Z,16.10
2019-04-16T10:24:08.056Z,19.30
2019-04-16T10:26:37.303Z,16.07
2019-04-16T10:29:09.994Z,18.42
2019-04-16T10:31:40.026Z,14.05
2019-04-16T10:34:10.854Z,16.90
2019-04-16T10:36:40.064Z,15.83
2019-04-16T10:39:27.137Z,15.00
2019-04-16T10:42:05.267Z,15.58
2019-04-16T10:44:40.309Z,15.65
2019-04-16T10:47:28.553Z,15.05
2019-04-16T10:50:06.803Z,16.45
2019-04-16T10:52:55.802Z,17.50
2019-04-16T10:55:29.642Z,17.80
2019-04-16T10:58:19.533Z,16.67
2019-04-16T11:00:56.117Z,16.48
2019-04-16T11:03:39.107Z,16.80
2019-04-16T11:06:30.419Z,17.15
2019-04-16T11:09:05.276Z,16.30
2019-04-16T11:11:36.638Z,15.03
2019-04-16T11:14:06.645Z,17.15
2019-04-16T11:16:36.622Z,16.90
2019-04-16T11:19:07.404Z,13.65
2019-04-16T11:21:37.858Z,18.37
2019-04-16T11:24:08.506Z,17.02
2019-04-16T11:26:37.614Z,15.23
2019-04-16T11:29:09.226Z,16.05
2019-04-16T11:31:40.159Z,15.32
2019-04-16T11:34:10.093Z,17.60
2019-04-16T11:36:42.414Z,18.75
2019-04-16T11:39:11.749Z,16.30
2019-04-16T11:41:41.087Z,18.52
2019-04-16T11:44:15.584Z,14.68
2019-04-16T11:46:41.073Z,14.65
2019-04-16T11:49:11.364Z,15.93
2019-04-16T11:51:41.522Z,19.60
2019-04-16T11:54:11.814Z,14.55
2019-04-16T11:56:44.664Z,14.47
2019-04-16T11:59:15.232Z,19.50
2019-04-16T12:01:53.694Z,14.68
2019-04-16T12:04:40.846Z,12.47
2019-04-16T12:07:30.052Z,15.75
2019-04-16T12:10:06.507Z,15.40
2019-04-16T12:12:44.743Z,18.30
2019-04-16T12:15:32.194Z,13.32
2019-04-16T12:18:15.292Z,15.83
2019-04-16T12:21:01.763Z,15.48
2019-04-16T12:23:33.022Z,15.00
2019-04-16T12:26:20.949Z,12.50
2019-04-16T12:28:52.739Z,11.75
2019-04-16T12:31:37.295Z,14.60
2019-04-16T12:34:24.644Z,14.25
2019-04-16T12:36:58.212Z,14.07
2019-04-16T12:39:35.791Z,14.15
2019-04-16T12:42:22.728Z,13.53
2019-04-16T12:44:58.356Z,12.07
2019-04-16T12:47:36.212Z,14.40
2019-04-16T12:50:18.505Z,15.15
2019-04-16T12:53:04.256Z,11.45
2019-04-16T12:55:51.522Z,12.25
2019-04-16T12:58:33.624Z,13.38
2019-04-16T13:01:19.962Z,11.63
2019-04-16T13:03:52.677Z,12.88
2019-04-16T13:06:26.899Z,10.72
2019-04-16T13:09:17.750Z,11.25
2019-04-16T13:11:49.896Z,10.85
2019-04-16T13:14:32.251Z,11.78
2019-04-16T13:17:06.422Z,13.28
2019-04-16T13:19:55.486Z,11.80
2019-04-16T13:22:27.303Z,11.75
2019-04-16T13:25:01.734Z,14.18
2019-04-16T13:27:32.526Z,13.10
2019-04-16T13:30:06.304Z,17.60
2019-04-16T13:32:35.430Z,11.63
2019-04-16T13:35:05.690Z,10.65
2019-04-16T13:37:37.948Z,10.88
2019-04-16T13:40:12.073Z,13.05
2019-04-16T13:45:18.852Z,12.82
2019-04-16T13:47:55.694Z,12.37
2019-04-16T13:50:35.867Z,12.03
2019-04-16T13:53:22.656Z,13.38
2019-04-16T13:55:55.681Z,12.73
2019-04-16T13:58:36.018Z,13.38
2019-04-16T14:01:18.633Z,13.38
2019-04-16T14:03:49.884Z,14.55
2019-04-16T14:06:22.743Z,12.80
2019-04-16T14:08:51.860Z,15.05
2019-04-16T14:11:21.035Z,14.73
2019-04-16T14:13:52.607Z,13.90
2019-04-16T14:16:22.879Z,15.20
2019-04-16T14:18:53.836Z,12.15
2019-04-16T14:21:22.931Z,10.72
2019-04-16T14:23:53.055Z,12.75
2019-04-16T14:26:24.650Z,14.58
2019-04-16T14:28:56.802Z,13.83
2019-04-16T14:31:26.569Z,14.78
2019-04-16T14:34:04.205Z,15.30
2019-04-16T14:36:33.311Z,15.38
2019-04-16T14:39:07.876Z,13.90
2019-04-16T14:41:36.616Z,15.30
2019-04-16T14:44:07.392Z,17.48
2019-04-16T14:46:36.583Z,16.93
2019-04-16T14:49:08.807Z,17.57
2019-04-16T14:54:16.310Z,15.88
2019-04-16T14:56:54.626Z,18.27
2019-04-16T14:59:34.019Z,15.95
2019-04-16T15:02:09.779Z,15.68
2019-04-16T15:04:59.591Z,17.67
2019-04-16T15:07:44.067Z,13.72
2019-04-16T15:10:21.131Z,13.45
2019-04-16T15:12:56.826Z,14.20
2019-04-16T15:15:34.818Z,13.13
2019-04-16T15:18:08.906Z,14.75
2019-04-16T15:20:43.421Z,13.85
2019-04-16T15:23:32.434Z,15.95
2019-04-16T15:26:09.886Z,13.95
2019-04-16T15:28:43.247Z,11.48
2019-04-16T15:31:32.690Z,12.13
2019-04-16T15:34:01.470Z,13.93
2019-04-16T15:36:36.044Z,8.20
2019-04-16T15:39:10.998Z,9.63
2019-04-16T15:42:00.210Z,9.58
2019-04-16T15:44:33.908Z,8.73
2019-04-16T15:47:13.401Z,9.90
2019-04-16T15:49:56.669Z,9.90
2019-04-16T15:52:46.528Z,9.80
2019-04-16T15:55:24.256Z,12.45
2019-04-16T15:58:07.799Z,9.40
2019-04-16T16:00:46.745Z,8.40
2019-04-16T16:03:33.829Z,10.78
2019-04-16T16:06:10.387Z,8.88
2019-04-16T16:08:41.651Z,9.65
2019-04-16T16:11:17.249Z,9.38
2019-04-16T16:13:45.823Z,10.68
2019-04-16T16:16:19.014Z,9.78
2019-04-16T16:18:49.472Z,10.10
2019-04-16T16:21:20.020Z,10.58
2019-04-16T16:23:49.379Z,9.73
2019-04-16T16:26:20.258Z,10.58
2019-04-16T16:28:49.362Z,10.78
2019-04-16T16:31:18.483Z,13.13
2019-04-16T16:33:47.838Z,11.43
2019-04-16T16:36:22.173Z,12.58
2019-04-16T16:38:52.831Z,15.43
2019-04-16T16:41:21.934Z,13.90
2019-04-16T16:43:51.047Z,14.15
2019-04-16T16:46:21.815Z,13.80
2019-04-16T16:48:52.992Z,13.05
2019-04-16T16:51:23.168Z,13.18
2019-04-16T16:53:57.146Z,13.78
2019-04-16T16:56:47.419Z,13.85
2019-04-16T16:59:24.395Z,15.30
2019-04-16T17:02:08.812Z,13.83
2019-04-16T17:04:36.983Z,15.40
2019-04-16T17:07:07.236Z,14.43
2019-04-16T17:09:36.573Z,15.58
2019-04-16T17:12:06.999Z,14.07
2019-04-16T17:14:38.070Z,12.20
2019-04-16T17:17:14.273Z,15.45
2019-04-16T17:19:38.946Z,14.68
2019-04-16T17:22:08.615Z,15.15
2019-04-16T17:24:37.740Z,14.30
2019-04-16T17:27:07.042Z,14.60
2019-04-16T17:29:36.734Z,16.15
2019-04-16T17:32:05.931Z,13.95
2019-04-16T17:34:38.621Z,16.15
2019-04-16T17:37:07.945Z,17.42
2019-04-16T17:39:42.325Z,13.08
2019-04-16T17:42:14.554Z,16.42
2019-04-16T17:44:53.237Z,16.52
2019-04-16T17:47:34.059Z,16.05
2019-04-16T17:50:10.686Z,16.95
2019-04-16T17:52:54.098Z,19.02
2019-04-16T17:57:58.951Z,19.10
2019-04-16T18:00:46.434Z,16.55
2019-04-16T18:03:17.238Z,18.02
2019-04-16T18:05:52.704Z,20.35
2019-04-16T18:08:39.954Z,18.23
2019-04-16T18:11:12.353Z,18.75
2019-04-16T18:13:48.111Z,19.92
2019-04-16T18:16:19.772Z,17.95
2019-04-16T18:19:07.143Z,19.87
2019-04-16T18:21:37.962Z,19.85
2019-04-16T18:24:09.752Z,16.97
2019-04-16T18:26:42.040Z,17.15
2019-04-16T18:29:12.812Z,19.27
2019-04-16T18:31:47.198Z,19.85
2019-04-16T18:34:21.731Z,17.82
2019-04-16T18:37:09.015Z,22.32
2019-04-16T18:39:55.904Z,18.75
2019-04-16T18:42:43.388Z,20.08
2019-04-16T18:45:32.629Z,25.70
2019-04-16T18:48:13.095Z,28.57
2019-04-16T18:50:36.914Z,31.50
2019-04-16T18:53:09.633Z,31.42
2019-04-16T18:55:37.143Z,24.55
2019-04-16T18:58:09.030Z,23.52
2019-04-16T19:00:45.783Z,20.60
2019-04-16T19:03:15.799Z,19.62
2019-04-16T19:05:46.075Z,17.95
2019-04-16T19:08:16.076Z,17.55
2019-04-16T19:10:46.869Z,18.98
2019-04-16T19:13:19.738Z,19.45
2019-04-16T19:15:47.403Z,17.55
2019-04-16T19:18:20.068Z,18.62
2019-04-16T19:20:51.805Z,21.20
2019-04-16T19:23:22.271Z,18.15
2019-04-16T19:25:51.750Z,18.67
2019-04-16T19:28:26.033Z,18.27
2019-04-16T19:30:55.108Z,18.02
2019-04-16T19:33:27.539Z,17.90
2019-04-16T19:35:59.943Z,17.90
2019-04-16T19:38:30.714Z,16.25
2019-04-16T19:41:01.360Z,17.80
2019-04-16T19:43:35.699Z,17.40
2019-04-16T19:46:04.911Z,17.45
2019-04-16T19:48:35.830Z,16.32
2019-04-16T19:51:07.340Z,16.60
2019-04-16T19:53:35.966Z,15.68
2019-04-16T19:56:06.798Z,17.55
2019-04-16T19:58:36.168Z,15.60
2019-04-16T20:01:06.228Z,15.13
2019-04-16T20:03:35.326Z,13.68
2019-04-16T20:06:04.463Z,14.15
2019-04-16T20:08:39.724Z,13.50
2019-04-16T20:11:06.883Z,15.98
2019-04-16T20:13:37.890Z,12.78
2019-04-16T20:16:08.639Z,12.30
2019-04-16T20:18:50.256Z,12.78
2019-04-16T20:21:09.506Z,12.33
2019-04-16T20:23:41.597Z,11.55
2019-04-16T20:26:10.783Z,13.38
2019-04-16T20:28:39.901Z,11.50
2019-04-16T20:31:09.269Z,9.38
2019-04-16T20:33:39.528Z,11.38
2019-04-16T20:36:09.806Z,11.65
2019-04-16T20:38:39.924Z,12.18
2019-04-16T20:41:09.281Z,13.75
2019-04-16T20:43:43.272Z,12.82
2019-04-16T20:46:14.023Z,11.03
2019-04-16T20:48:45.023Z,11.88
2019-04-16T20:51:16.700Z,9.48
2019-04-16T20:53:47.684Z,8.28
2019-04-16T20:56:20.479Z,6.87
2019-04-16T20:58:51.969Z,6.35
2019-04-16T21:01:35.512Z,6.30
2019-04-16T21:04:05.731Z,7.85
2019-04-16T21:06:31.566Z,6.90
2019-04-16T21:09:02.733Z,6.35
2019-04-16T21:11:33.511Z,6.83
2019-04-16T21:14:05.351Z,8.13
2019-04-16T21:16:37.380Z,8.85
2019-04-16T21:19:22.484Z,5.40
2019-04-16T21:21:39.656Z,7.10
2019-04-16T21:24:09.228Z,5.60
2019-04-16T21:26:38.657Z,6.97
2019-04-16T21:29:27.215Z,6.45
2019-04-16T21:32:01.123Z,6.75
2019-04-16T21:34:34.242Z,7.28
2019-04-16T21:37:16.743Z,6.37
2019-04-16T21:39:51.069Z,6.33
2019-04-16T21:42:18.357Z,6.62
2019-04-16T21:44:47.484Z,6.25
2019-04-16T21:47:23.265Z,6.90
2019-04-16T21:49:50.632Z,5.97
2019-04-16T21:52:23.019Z,6.20
2019-04-16T21:54:50.551Z,6.50
2019-04-16T21:57:21.321Z,6.97
2019-04-16T21:59:56.866Z,6.33
2019-04-16T22:02:29.769Z,6.22
2019-04-16T22:04:58.867Z,6.62
2019-04-16T22:07:28.000Z,7.62
2019-04-16T22:09:57.095Z,6.58
2019-04-16T22:12:27.848Z,5.78
2019-04-16T22:14:59.245Z,5.83
2019-04-16T22:17:29.364Z,5.65
2019-04-16T22:20:04.095Z,5.05
2019-04-16T22:22:32.664Z,6.12
2019-04-16T22:25:03.017Z,6.70
2019-04-16T22:27:32.207Z,6.50
2019-04-16T22:30:03.445Z,6.10
2019-04-16T22:32:34.172Z,5.53
2019-04-16T22:35:04.243Z,7.12
2019-04-16T22:37:33.351Z,5.78
2019-04-16T22:40:22.806Z,7.47
2019-04-16T22:43:08.462Z,5.10
2019-04-16T22:45:38.618Z,5.60
2019-04-16T22:48:07.730Z,6.35
2019-04-16T22:50:40.493Z,5.47
2019-04-16T22:53:10.980Z,6.78
2019-04-16T22:55:42.760Z,6.12
2019-04-16T22:58:24.754Z,5.28
2019-04-16T23:00:56.480Z,5.92
2019-04-16T23:03:26.614Z,6.40
2019-04-16T23:05:55.717Z,5.28
2019-04-16T23:08:26.078Z,5.75
2019-04-16T23:10:55.484Z,6.62
2019-04-16T23:13:25.914Z,5.53
2019-04-16T23:15:55.125Z,5.15
2019-04-16T23:18:26.978Z,4.40
2019-04-16T23:20:57.297Z,5.37
2019-04-16T23:23:26.412Z,5.83
2019-04-16T23:25:59.149Z,5.60
2019-04-16T23:28:28.373Z,3.85
2019-04-16T23:30:59.352Z,4.97
2019-04-16T23:33:32.595Z,4.70
2019-04-16T23:35:59.780Z,5.53
2019-04-16T23:38:31.687Z,4.83
2019-04-16T23:41:00.797Z,4.20
2019-04-16T23:43:47.569Z,4.92
2019-04-16T23:46:37.826Z,4.05
2019-04-16T23:49:11.898Z,3.77
2019-04-16T23:51:45.846Z,5.35
2019-04-16T23:54:16.623Z,4.92
2019-04-16T23:56:49.802Z,3.67
2019-04-16T23:59:20.931Z,4.28
